Snowmass Village, Colorado
Current Conditions -  °F | °C
As of 12:53 AM on Friday 31 Oct 2014 (Local Time) from KASE Reporting Station
Clear Clear  
Wind Chill: 29°   Ceiling: Unl
Heat Index: 35°   Visibility: 10mi
Dew Point: 22°   Wind: 7mph
Humidity: 59%   Direction: 210°SSW
Pressure: 30.36"   Gusts: NA
Location:  39.21°N, 106.94°W
Report Text: KASE 310653Z AUTO 21006KT 10SM CLR 02/M06 A3036 RMK AO2 SLP210 T00171056 401671033
Loading
Personal Weather Stations






























Interactive Weather Map
Tropical Storm Tracking
New forecast layout! Learn more

10-Day Weather Forecast

Advertisements
Track Severe Weather on mobile